createdAt,value
2022-08-01T00:00:45.351Z,47.30
2022-08-01T00:03:12.190Z,47.30
2022-08-01T00:05:39.179Z,47.70
2022-08-01T00:08:06.566Z,48.00
2022-08-01T00:10:33.350Z,48.00
2022-08-01T00:13:03.095Z,47.90
2022-08-01T00:15:29.961Z,48.20
2022-08-01T00:17:56.790Z,48.20
2022-08-01T00:20:23.792Z,48.30
2022-08-01T00:22:51.959Z,48.80
2022-08-01T00:25:18.803Z,48.60
2022-08-01T00:27:45.764Z,49.00
2022-08-01T00:30:15.135Z,48.90
2022-08-01T00:32:45.170Z,49.90
2022-08-01T00:35:12.544Z,48.90
2022-08-01T00:37:39.357Z,49.40
2022-08-01T00:40:08.390Z,49.80
2022-08-01T00:42:38.095Z,51.00
2022-08-01T00:45:09.350Z,50.50
2022-08-01T00:47:36.180Z,50.70
2022-08-01T00:50:05.807Z,50.70
2022-08-01T00:52:35.132Z,51.50
2022-08-01T00:55:02.506Z,51.80
2022-08-01T00:58:03.680Z,52.30
2022-08-01T01:00:18.212Z,52.00
2022-08-01T01:02:45.167Z,52.40
2022-08-01T01:05:12.072Z,52.40
2022-08-01T01:08:03.129Z,52.40
2022-08-01T01:10:58.804Z,53.50
2022-08-01T01:13:50.006Z,53.70
2022-08-01T01:16:22.280Z,53.30
2022-08-01T01:19:01.429Z,53.40
2022-08-01T01:21:50.336Z,54.00
2022-08-01T01:24:53.414Z,54.70
2022-08-01T01:27:40.428Z,54.30
2022-08-01T01:30:08.168Z,54.00
2022-08-01T01:32:42.615Z,53.50
2022-08-01T01:35:20.774Z,54.20
2022-08-01T01:37:53.820Z,54.00
2022-08-01T01:40:24.969Z,54.00
2022-08-01T01:42:52.832Z,54.00
2022-08-01T01:45:20.329Z,54.00
2022-08-01T01:47:48.229Z,54.10
2022-08-01T01:50:16.615Z,54.30
2022-08-01T01:52:46.291Z,54.50
2022-08-01T01:55:15.661Z,54.50
2022-08-01T01:57:45.048Z,54.50
2022-08-01T02:00:14.916Z,54.50
2022-08-01T02:02:44.205Z,54.70
2022-08-01T02:05:14.026Z,54.90
2022-08-01T02:07:43.730Z,54.80
2022-08-01T02:10:13.241Z,54.90
2022-08-01T02:12:46.601Z,54.90
2022-08-01T02:15:16.584Z,54.80
2022-08-01T02:17:50.010Z,55.10
2022-08-01T02:20:17.951Z,55.10
2022-08-01T02:22:53.074Z,55.00
2022-08-01T02:25:32.506Z,55.30
2022-08-01T02:28:13.454Z,55.50
2022-08-01T02:30:47.080Z,55.30
2022-08-01T02:33:34.429Z,55.20
2022-08-01T02:36:31.474Z,55.50
2022-08-01T02:38:52.555Z,55.30
2022-08-01T02:41:25.793Z,55.30
2022-08-01T02:44:00.102Z,55.70
2022-08-01T02:46:57.305Z,55.60
2022-08-01T02:49:27.852Z,56.50
2022-08-01T02:51:57.138Z,55.70
2022-08-01T02:54:26.169Z,55.90
2022-08-01T02:56:55.544Z,55.90
2022-08-01T02:59:28.701Z,56.10
2022-08-01T03:01:58.748Z,56.10
2022-08-01T03:04:29.142Z,56.40
2022-08-01T03:06:59.732Z,56.40
2022-08-01T03:09:30.413Z,56.50
2022-08-01T03:12:02.176Z,56.70
2022-08-01T03:14:33.323Z,57.30
2022-08-01T03:17:02.874Z,56.80
2022-08-01T03:19:32.694Z,56.80
2022-08-01T03:22:05.883Z,57.00
2022-08-01T03:24:35.795Z,56.90
2022-08-01T03:27:04.886Z,57.00
2022-08-01T03:29:34.961Z,57.10
2022-08-01T03:32:03.959Z,57.20
2022-08-01T03:34:31.491Z,57.20
2022-08-01T03:37:11.030Z,57.20
2022-08-01T03:39:48.389Z,57.80
2022-08-01T03:42:21.770Z,58.10
2022-08-01T03:44:55.793Z,57.40
2022-08-01T03:47:30.125Z,57.70
2022-08-01T03:50:01.234Z,57.70
2022-08-01T03:52:31.574Z,57.70
2022-08-01T03:55:04.067Z,57.80
2022-08-01T03:57:35.611Z,57.90
2022-08-01T04:00:10.472Z,58.10
2022-08-01T04:02:38.489Z,58.20
2022-08-01T04:05:06.602Z,58.90
2022-08-01T04:07:40.058Z,57.90
2022-08-01T04:10:07.759Z,58.00
2022-08-01T04:12:36.146Z,58.00
2022-08-01T04:15:04.071Z,58.20
2022-08-01T04:17:30.923Z,58.30
2022-08-01T04:19:57.893Z,58.30
2022-08-01T04:22:25.430Z,58.70
2022-08-01T04:24:58.143Z,58.80
2022-08-01T04:27:50.008Z,58.80
2022-08-01T04:30:28.035Z,58.90
2022-08-01T04:33:00.077Z,59.20
2022-08-01T04:36:02.612Z,58.90
2022-08-01T04:38:24.461Z,59.00
2022-08-01T04:40:53.511Z,59.10
2022-08-01T04:43:20.859Z,59.10
2022-08-01T04:45:48.989Z,59.50
2022-08-01T04:48:22.579Z,59.60
2022-08-01T04:50:50.412Z,59.90
2022-08-01T04:53:20.292Z,59.70
2022-08-01T04:55:47.454Z,59.70
2022-08-01T04:58:18.565Z,59.80
2022-08-01T05:00:47.413Z,60.00
2022-08-01T05:03:14.626Z,60.00
2022-08-01T05:05:41.497Z,60.00
2022-08-01T05:08:08.332Z,60.10
2022-08-01T05:10:35.342Z,60.70
2022-08-01T05:13:03.195Z,60.30
2022-08-01T05:15:30.153Z,60.50
2022-08-01T05:17:57.659Z,60.50
2022-08-01T05:20:24.625Z,60.50
2022-08-01T05:22:51.513Z,60.70
2022-08-01T05:25:20.305Z,60.90
2022-08-01T05:27:50.943Z,61.00
2022-08-01T05:30:19.007Z,61.20
2022-08-01T05:32:45.795Z,61.60
2022-08-01T05:35:12.778Z,61.20
2022-08-01T05:37:39.776Z,62.10
2022-08-01T05:40:07.757Z,61.50
2022-08-01T05:42:34.744Z,61.80
2022-08-01T05:45:01.695Z,61.80
2022-08-01T05:47:28.488Z,61.80
2022-08-01T05:49:55.400Z,61.90
2022-08-01T05:52:22.297Z,61.90
2022-08-01T05:54:49.101Z,62.10
2022-08-01T05:57:15.962Z,62.20
2022-08-01T05:59:42.761Z,62.20
2022-08-01T06:02:10.223Z,62.40
2022-08-01T06:04:37.480Z,62.50
2022-08-01T06:07:04.294Z,62.70
2022-08-01T06:09:31.907Z,62.30
2022-08-01T06:11:58.877Z,62.40
2022-08-01T06:14:25.830Z,62.40
2022-08-01T06:16:52.750Z,62.30
2022-08-01T06:19:19.725Z,62.10
2022-08-01T06:21:46.698Z,62.00
2022-08-01T06:24:13.605Z,61.90
2022-08-01T06:26:40.611Z,62.10
2022-08-01T06:29:07.382Z,61.80
2022-08-01T06:31:36.833Z,62.10
2022-08-01T06:34:04.335Z,61.70
2022-08-01T06:36:31.195Z,61.70
2022-08-01T06:38:57.938Z,61.70
2022-08-01T06:41:24.786Z,61.80
2022-08-01T06:43:51.575Z,61.80
2022-08-01T06:46:18.545Z,61.80
2022-08-01T06:48:45.316Z,62.00
2022-08-01T06:51:14.700Z,62.10
2022-08-01T06:53:41.540Z,62.10
2022-08-01T06:56:10.795Z,62.20
2022-08-01T06:58:37.933Z,62.10
2022-08-01T07:01:07.094Z,62.10
2022-08-01T07:03:52.953Z,61.90
2022-08-01T07:06:24.905Z,62.20
2022-08-01T07:08:53.099Z,61.80
2022-08-01T07:11:21.276Z,61.80
2022-08-01T07:13:48.179Z,61.70
2022-08-01T07:16:16.375Z,61.50
2022-08-01T07:18:44.033Z,61.40
2022-08-01T07:21:38.911Z,61.20
2022-08-01T07:23:57.729Z,61.00
2022-08-01T07:26:27.704Z,61.10
2022-08-01T07:28:54.751Z,61.00
2022-08-01T07:31:21.607Z,61.10
2022-08-01T07:33:49.267Z,60.90
2022-08-01T07:36:19.831Z,61.10
2022-08-01T07:38:49.330Z,61.20
2022-08-01T07:41:16.992Z,61.20
2022-08-01T07:43:50.653Z,60.90
2022-08-01T07:46:20.065Z,61.00
2022-08-01T07:48:46.885Z,61.00
2022-08-01T07:51:13.698Z,61.30
2022-08-01T07:53:40.573Z,61.30
2022-08-01T07:56:07.354Z,61.30
2022-08-01T07:58:35.148Z,61.50
2022-08-01T08:01:02.025Z,61.60
2022-08-01T08:03:28.887Z,61.50
2022-08-01T08:05:59.915Z,61.60
2022-08-01T08:08:28.489Z,61.20
2022-08-01T08:10:55.628Z,61.30
2022-08-01T08:13:22.877Z,61.00
2022-08-01T08:15:49.721Z,60.80
2022-08-01T08:18:17.200Z,60.50
2022-08-01T08:20:44.730Z,60.60
2022-08-01T08:23:42.495Z,60.60
2022-08-01T08:26:11.609Z,60.60
2022-08-01T08:28:38.546Z,60.90
2022-08-01T08:31:07.973Z,60.70
2022-08-01T08:33:52.842Z,60.70
2022-08-01T08:36:19.820Z,61.00
2022-08-01T08:38:46.576Z,61.00
2022-08-01T08:41:20.693Z,61.10
2022-08-01T08:43:48.324Z,61.10
2022-08-01T08:46:15.777Z,61.00
2022-08-01T08:48:43.510Z,60.90
2022-08-01T08:51:12.365Z,60.60
2022-08-01T08:53:44.889Z,60.70
2022-08-01T08:56:14.595Z,60.60
2022-08-01T08:58:45.647Z,60.30
2022-08-01T09:01:13.680Z,60.10
2022-08-01T09:03:41.577Z,59.80
2022-08-01T09:06:08.726Z,59.70
2022-08-01T09:08:36.454Z,59.50
2022-08-01T09:11:04.530Z,59.40
2022-08-01T09:13:31.418Z,59.20
2022-08-01T09:16:01.550Z,59.00
2022-08-01T09:18:45.326Z,58.90
2022-08-01T09:21:24.940Z,58.70
2022-08-01T09:23:55.249Z,58.70
2022-08-01T09:26:37.216Z,58.30
2022-08-01T09:29:08.313Z,57.90
2022-08-01T09:31:47.583Z,57.70
2022-08-01T09:34:16.774Z,57.60
2022-08-01T09:36:57.416Z,57.50
2022-08-01T09:39:31.834Z,57.40
2022-08-01T09:42:02.256Z,57.50
2022-08-01T09:44:54.619Z,57.50
2022-08-01T09:47:23.613Z,57.50
2022-08-01T09:49:59.305Z,57.40
2022-08-01T09:52:29.038Z,57.40
2022-08-01T09:55:06.313Z,57.30
2022-08-01T09:57:33.598Z,57.20
2022-08-01T10:00:02.934Z,57.20
2022-08-01T10:02:35.848Z,57.30
2022-08-01T10:05:08.462Z,57.30
2022-08-01T10:07:55.608Z,57.30
2022-08-01T10:10:28.771Z,57.30
2022-08-01T10:12:59.454Z,57.20
2022-08-01T10:15:37.223Z,57.30
2022-08-01T10:18:25.906Z,57.30
2022-08-01T10:20:56.336Z,57.30
2022-08-01T10:23:40.171Z,57.30
2022-08-01T10:26:11.355Z,57.50
2022-08-01T10:28:40.272Z,57.60
2022-08-01T10:31:12.749Z,57.40
2022-08-01T10:33:51.637Z,57.90
2022-08-01T10:36:25.495Z,57.40
2022-08-01T10:38:55.550Z,57.40
2022-08-01T10:41:23.259Z,57.30
2022-08-01T10:43:50.067Z,57.30
2022-08-01T10:46:21.257Z,57.30
2022-08-01T10:49:02.082Z,57.40
2022-08-01T10:51:52.075Z,57.40
2022-08-01T10:54:16.921Z,57.30
2022-08-01T10:56:48.698Z,57.40
2022-08-01T10:59:49.146Z,57.40
2022-08-01T11:02:20.280Z,57.40
2022-08-01T11:05:04.400Z,57.30
2022-08-01T11:07:46.882Z,57.30
2022-08-01T11:10:35.291Z,57.10
2022-08-01T11:13:04.565Z,57.00
2022-08-01T11:15:31.869Z,57.10
2022-08-01T11:18:01.682Z,57.10
2022-08-01T11:20:32.301Z,57.10
2022-08-01T11:23:02.877Z,57.10
2022-08-01T11:26:05.247Z,56.90
2022-08-01T11:28:34.675Z,56.80
2022-08-01T11:31:08.097Z,56.70
2022-08-01T11:33:46.387Z,56.60
2022-08-01T11:36:14.531Z,56.80
2022-08-01T11:39:13.882Z,56.80
2022-08-01T11:41:44.885Z,57.30
2022-08-01T11:44:26.304Z,57.20
2022-08-01T11:46:59.520Z,57.50
2022-08-01T11:49:39.303Z,57.90
2022-08-01T11:52:25.021Z,58.00
2022-08-01T11:55:03.050Z,58.30
2022-08-01T11:57:35.693Z,58.10
2022-08-01T12:00:15.222Z,58.10
2022-08-01T12:02:45.688Z,58.20
2022-08-01T12:05:19.094Z,58.20
2022-08-01T12:07:51.647Z,58.40
2022-08-01T12:10:22.660Z,58.40
2022-08-01T12:12:56.730Z,58.40
2022-08-01T12:15:25.509Z,58.40
2022-08-01T12:18:01.290Z,58.30
2022-08-01T12:20:35.174Z,58.20
2022-08-01T12:23:08.774Z,58.00
2022-08-01T12:25:36.745Z,57.60
2022-08-01T12:28:06.836Z,57.10
2022-08-01T12:30:36.751Z,57.10
2022-08-01T12:33:06.918Z,56.90
2022-08-01T12:35:35.864Z,56.50
2022-08-01T12:38:07.733Z,56.60
2022-08-01T12:40:45.074Z,56.50
2022-08-01T12:43:28.093Z,56.60
2022-08-01T12:46:01.297Z,56.70
2022-08-01T12:48:32.700Z,56.70
2022-08-01T12:51:03.814Z,56.80
2022-08-01T12:53:40.611Z,56.80
2022-08-01T12:56:10.437Z,56.60
2022-08-01T12:58:37.472Z,56.60
2022-08-01T13:01:11.421Z,56.70
2022-08-01T13:03:39.479Z,56.60
2022-08-01T13:06:16.545Z,56.50
2022-08-01T13:08:45.404Z,56.40
2022-08-01T13:11:15.758Z,55.90
2022-08-01T13:13:48.384Z,55.50
2022-08-01T13:16:30.693Z,55.40
2022-08-01T13:19:06.926Z,55.10
2022-08-01T13:21:52.843Z,55.10
2022-08-01T13:24:30.264Z,54.80
2022-08-01T13:27:07.857Z,54.70
2022-08-01T13:29:42.597Z,54.80
2022-08-01T13:32:28.255Z,54.90
2022-08-01T13:35:13.922Z,55.00
2022-08-01T13:37:43.431Z,55.20
2022-08-01T13:40:12.626Z,55.20
2022-08-01T13:42:39.983Z,55.30
2022-08-01T13:45:11.865Z,55.30
2022-08-01T13:47:41.138Z,55.10
2022-08-01T13:50:28.952Z,55.20
2022-08-01T13:52:56.951Z,55.10
2022-08-01T13:55:23.925Z,54.90
2022-08-01T13:57:51.177Z,54.70
2022-08-01T14:00:18.211Z,54.70
2022-08-01T14:02:45.031Z,54.70
2022-08-01T14:05:12.384Z,54.90
2022-08-01T14:07:39.314Z,55.00
2022-08-01T14:10:19.802Z,55.70
2022-08-01T14:12:50.883Z,55.40
2022-08-01T14:15:38.189Z,55.60
2022-08-01T14:18:10.018Z,55.70
2022-08-01T14:20:40.399Z,55.70
2022-08-01T14:23:08.559Z,56.00
2022-08-01T14:26:01.479Z,56.00
2022-08-01T14:28:29.557Z,56.00
2022-08-01T14:30:58.868Z,56.10
2022-08-01T14:33:27.230Z,56.20
2022-08-01T14:36:05.631Z,56.10
2022-08-01T14:38:35.004Z,55.90
2022-08-01T14:41:04.300Z,55.90
2022-08-01T14:43:33.613Z,55.80
2022-08-01T14:46:03.890Z,55.80
2022-08-01T14:48:30.850Z,55.70
2022-08-01T14:51:00.114Z,55.50
2022-08-01T14:53:27.552Z,55.40
2022-08-01T14:55:54.379Z,55.10
2022-08-01T14:58:21.243Z,54.80
2022-08-01T15:00:48.194Z,54.70
2022-08-01T15:03:15.096Z,54.70
2022-08-01T15:05:41.855Z,54.40
2022-08-01T15:08:08.678Z,54.30
2022-08-01T15:10:36.168Z,54.30
2022-08-01T15:13:03.074Z,54.30
2022-08-01T15:15:30.282Z,54.40
2022-08-01T15:17:57.952Z,54.60
2022-08-01T15:20:25.647Z,54.60
2022-08-01T15:22:53.903Z,54.70
2022-08-01T15:25:21.250Z,54.60
2022-08-01T15:27:48.463Z,54.70
2022-08-01T15:30:15.474Z,55.10
2022-08-01T15:32:42.298Z,54.40
2022-08-01T15:35:11.166Z,54.40
2022-08-01T15:37:42.583Z,54.20
2022-08-01T15:40:12.456Z,54.30
2022-08-01T15:42:39.779Z,54.30
2022-08-01T15:45:10.658Z,54.20
2022-08-01T15:47:40.072Z,53.70
2022-08-01T15:50:07.987Z,54.10
2022-08-01T15:52:35.366Z,54.20
2022-08-01T15:55:03.665Z,54.20
2022-08-01T15:57:30.445Z,54.20
2022-08-01T15:59:57.948Z,54.10
2022-08-01T16:02:24.855Z,54.10
2022-08-01T16:04:51.653Z,54.00
2022-08-01T16:07:18.451Z,54.00
2022-08-01T16:09:45.431Z,54.00
2022-08-01T16:12:19.662Z,53.50
2022-08-01T16:14:46.852Z,54.00
2022-08-01T16:17:13.696Z,54.10
2022-08-01T16:19:41.040Z,54.00
2022-08-01T16:22:08.291Z,53.90
2022-08-01T16:24:36.377Z,53.90
2022-08-01T16:27:03.692Z,53.80
2022-08-01T16:29:31.978Z,53.70
2022-08-01T16:32:06.632Z,53.50
2022-08-01T16:34:38.762Z,53.40
2022-08-01T16:37:12.967Z,53.20
2022-08-01T16:39:39.973Z,53.20
2022-08-01T16:42:08.561Z,53.20
2022-08-01T16:44:35.645Z,53.10
2022-08-01T16:47:05.063Z,53.10
2022-08-01T16:49:32.664Z,53.00
2022-08-01T16:51:59.693Z,53.00
2022-08-01T16:54:26.744Z,53.00
2022-08-01T16:56:56.037Z,52.90
2022-08-01T16:59:24.655Z,53.00
2022-08-01T17:02:00.562Z,52.90
2022-08-01T17:04:29.810Z,52.80
2022-08-01T17:06:57.180Z,52.70
2022-08-01T17:09:24.153Z,52.60
2022-08-01T17:11:51.490Z,52.60
2022-08-01T17:14:18.709Z,52.50
2022-08-01T17:16:45.499Z,52.50
2022-08-01T17:19:12.491Z,52.40
2022-08-01T17:21:42.623Z,52.40
2022-08-01T17:24:10.253Z,52.40
2022-08-01T17:26:39.157Z,52.50
2022-08-01T17:29:06.038Z,52.40
2022-08-01T17:31:32.871Z,52.40
2022-08-01T17:33:59.622Z,52.40
2022-08-01T17:36:26.608Z,52.30
2022-08-01T17:38:59.676Z,52.50
2022-08-01T17:41:26.893Z,52.40
2022-08-01T17:43:56.426Z,52.40
2022-08-01T17:46:24.734Z,52.30
2022-08-01T17:48:51.587Z,52.20
2022-08-01T17:51:22.697Z,52.20
2022-08-01T17:53:57.004Z,52.30
2022-08-01T17:56:26.266Z,52.30
2022-08-01T17:58:53.326Z,52.30
2022-08-01T18:01:21.704Z,52.30
2022-08-01T18:03:54.133Z,52.30
2022-08-01T18:06:23.218Z,52.30
2022-08-01T18:08:53.058Z,52.20
2022-08-01T18:11:22.935Z,52.20
2022-08-01T18:13:51.618Z,52.20
2022-08-01T18:16:19.148Z,52.20
2022-08-01T18:18:46.022Z,52.20
2022-08-01T18:21:13.033Z,52.20
2022-08-01T18:23:40.707Z,52.10
2022-08-01T18:26:18.196Z,52.10
2022-08-01T18:28:46.587Z,52.10
2022-08-01T18:31:17.406Z,52.00
2022-08-01T18:34:04.473Z,52.00
2022-08-01T18:36:34.334Z,51.90
2022-08-01T18:39:10.141Z,52.00
2022-08-01T18:41:40.272Z,52.10
2022-08-01T18:44:08.977Z,52.00
2022-08-01T18:46:40.173Z,52.10
2022-08-01T18:49:09.430Z,52.20
2022-08-01T18:51:42.929Z,52.20
2022-08-01T18:54:10.936Z,52.30
2022-08-01T18:56:40.490Z,52.30
2022-08-01T18:59:07.892Z,52.30
2022-08-01T19:01:35.318Z,52.40
2022-08-01T19:04:02.641Z,52.40
2022-08-01T19:06:29.426Z,52.40
2022-08-01T19:09:01.864Z,52.40
2022-08-01T19:11:31.143Z,52.50
2022-08-01T19:13:58.672Z,52.40
2022-08-01T19:16:27.460Z,52.20
2022-08-01T19:18:54.386Z,52.20
2022-08-01T19:21:22.705Z,52.20
2022-08-01T19:24:08.170Z,52.10
2022-08-01T19:26:36.059Z,52.10
2022-08-01T19:29:15.043Z,52.10
2022-08-01T19:31:48.518Z,52.10
2022-08-01T19:34:19.313Z,52.00
2022-08-01T19:36:49.666Z,52.00
2022-08-01T19:39:21.513Z,52.00
2022-08-01T19:41:51.577Z,52.00
2022-08-01T19:44:22.640Z,52.00
2022-08-01T19:46:52.111Z,51.90
2022-08-01T19:49:22.406Z,51.90
2022-08-01T19:52:01.227Z,51.80
2022-08-01T19:54:39.734Z,51.90
2022-08-01T19:57:09.395Z,51.90
2022-08-01T19:59:36.929Z,51.80
2022-08-01T20:02:05.595Z,51.80
2022-08-01T20:04:34.040Z,51.80
2022-08-01T20:07:03.223Z,51.80
2022-08-01T20:09:32.173Z,51.90
2022-08-01T20:12:00.342Z,51.90
2022-08-01T20:14:27.626Z,52.00
2022-08-01T20:16:56.595Z,52.00
2022-08-01T20:19:24.893Z,52.10
2022-08-01T20:22:03.930Z,52.20
2022-08-01T20:24:50.485Z,52.30
2022-08-01T20:27:19.401Z,52.20
2022-08-01T20:29:49.528Z,52.30
2022-08-01T20:32:17.588Z,52.30
2022-08-01T20:34:44.461Z,52.30
2022-08-01T20:37:12.817Z,52.30
2022-08-01T20:39:43.423Z,52.40
2022-08-01T20:42:11.535Z,52.40
2022-08-01T20:44:39.302Z,52.40
2022-08-01T20:47:06.154Z,52.50
2022-08-01T20:49:36.306Z,52.60
2022-08-01T20:52:11.748Z,52.60
2022-08-01T20:54:41.350Z,52.70
2022-08-01T20:57:20.494Z,53.40
2022-08-01T20:59:56.016Z,52.90
2022-08-01T21:02:48.832Z,53.00
2022-08-01T21:05:29.810Z,53.10
2022-08-01T21:08:22.285Z,53.30
2022-08-01T21:10:57.769Z,53.50
2022-08-01T21:13:40.513Z,53.40
2022-08-01T21:16:24.036Z,53.60
2022-08-01T21:19:20.759Z,53.50
2022-08-01T21:22:10.053Z,53.70
2022-08-01T21:24:58.382Z,54.00
2022-08-01T21:27:33.167Z,54.20
2022-08-01T21:30:04.893Z,54.00
2022-08-01T21:32:34.339Z,54.10
2022-08-01T21:35:04.439Z,54.20
2022-08-01T21:37:31.667Z,54.30
2022-08-01T21:40:00.992Z,54.40
2022-08-01T21:42:38.493Z,54.50
2022-08-01T21:45:09.615Z,54.60
2022-08-01T21:47:37.319Z,54.80
2022-08-01T21:50:04.826Z,54.90
2022-08-01T21:52:57.238Z,55.50
2022-08-01T21:55:35.565Z,55.40
2022-08-01T21:58:34.350Z,55.20
2022-08-01T22:01:51.568Z,55.60
2022-08-01T22:04:34.833Z,55.60
2022-08-01T22:07:04.174Z,55.40
2022-08-01T22:09:32.492Z,55.30
2022-08-01T22:12:06.601Z,55.40
2022-08-01T22:14:40.219Z,55.60
2022-08-01T22:17:09.348Z,55.60
2022-08-01T22:19:45.502Z,55.80
2022-08-01T22:22:45.253Z,55.50
2022-08-01T22:25:02.623Z,55.70
2022-08-01T22:28:08.596Z,55.70
2022-08-01T22:30:18.303Z,55.80
2022-08-01T22:33:15.704Z,55.90
2022-08-01T22:35:35.905Z,56.00
2022-08-01T22:38:06.734Z,56.00
2022-08-01T22:40:37.521Z,56.00
2022-08-01T22:43:34.982Z,56.20
2022-08-01T22:46:22.418Z,56.30
2022-08-01T22:49:34.651Z,56.50
2022-08-01T22:52:27.462Z,56.80
2022-08-01T22:55:05.654Z,56.80
2022-08-01T22:57:51.602Z,56.70
2022-08-01T23:00:18.993Z,57.00
2022-08-01T23:02:53.834Z,56.80
2022-08-01T23:05:26.782Z,56.90
2022-08-01T23:07:56.997Z,57.10
2022-08-01T23:10:26.150Z,57.10
2022-08-01T23:12:55.753Z,56.80
2022-08-01T23:15:24.487Z,57.20
2022-08-01T23:17:53.553Z,57.20
2022-08-01T23:20:22.019Z,57.20
2022-08-01T23:22:51.265Z,57.30
2022-08-01T23:25:18.338Z,57.30
2022-08-01T23:27:57.881Z,57.30
2022-08-01T23:30:35.262Z,57.50
2022-08-01T23:33:03.103Z,57.50
2022-08-01T23:35:30.609Z,57.50
2022-08-01T23:38:02.552Z,57.60
2022-08-01T23:40:32.383Z,57.70
2022-08-01T23:43:01.253Z,57.80
2022-08-01T23:45:28.524Z,57.80
2022-08-01T23:48:15.297Z,57.90
2022-08-01T23:50:42.115Z,58.00
2022-08-01T23:53:08.998Z,58.10
2022-08-01T23:55:37.623Z,58.10
2022-08-01T23:58:06.897Z,58.80
